Terminal Aerodrome Forecast
Issued by NWS New Orleans/Baton Rouge, LA

Home | Current Version | Previous Version | Text Only | Print | Product List | Glossary On
Versions: 1 2 3 4 5 6 7 8 9 10 11 12
000
FTUS44 KLIX 270800 AAA
TAFBTR
TAF AMD
KBTR 270805Z 2708/2806 10008KT 4SM -RA BR FEW007 BKN021 OVC050
     FM271000 11008KT P6SM -RA OVC012
     FM271500 11007KT 3/4SM +SHRA OVC008
     FM272200 17005KT 3/4SM +SHRA OVC008=

USA.gov is the U.S. government's official web portal to all federal, state and local government web resources and services.